This is the latest recevied weather packets stored in our database for station/object TG8AKV-17. If no packets are shown the sender has not sent any weather packets the latest 10 day(s).
| Time | Temp. | Humidity | Pressure | Rain* | Wind** | Luminosity | Snow |
|---|---|---|---|---|---|---|---|
| 1778185494 | 17.22° C | 91% | 1015 hPa | 0 mm | - | - | - |
| 1778184894 | 17.22° C | 93% | 1015 hPa | 0 mm | - | - | - |
| 1778184293 | 17.22° C | 93% | 1015 hPa | 0 mm | - | - | - |
| 1778183692 | 17.22° C | 91% | 1015 hPa | 0 mm | - | - | - |
| 1778183092 | 17.78° C | 88% | 1015 hPa | 0 mm | - | - | - |
| 1778182491 | 18.33° C | 84% | 1015 hPa | 0 mm | - | - | - |
| 1778181891 | 18.33° C | 85% | 1015 hPa | 0 mm | - | - | - |
| 1778181290 | 18.33° C | 87% | 1015 hPa | 0 mm | - | - | - |
| 1778180689 | 18.33° C | 92% | 1015 hPa | 0 mm | - | - | - |
| 1778180089 | 18.89° C | 91% | 1015 hPa | 0 mm | - | - | - |
| 1778179488 | 19.44° C | 89% | 1015 hPa | 0 mm | - | - | - |
| 1778178888 | 19.44° C | 89% | 1015 hPa | 0 mm | - | - | - |
| 1778178287 | 20° C | 87% | 1016 hPa | 0 mm | - | - | - |
| 1778177686 | 21.11° C | 83% | 1016 hPa | 0 mm | - | - | - |
| 1778177086 | 22.78° C | 75% | 1016 hPa | 0 mm | - | - | - |
| 1778176485 | 22.78° C | 75% | 1016 hPa | 0 mm | - | - | - |
| 1778175885 | 22.78° C | 75% | 1016 hPa | 0 mm | - | - | - |
| 1778175284 | 24.44° C | 61% | 1016 hPa | 0 mm | - | - | - |
| 1778174683 | 24.44° C | 58% | 1016 hPa | 0 mm | - | - | - |
| 1778174083 | 23.89° C | 62% | 1016 hPa | 0 mm | - | - | - |
| 1778173482 | 23.33° C | 61% | 1016 hPa | 0 mm | - | - | - |
| 1778172881 | 22.22° C | 59% | 1016 hPa | 0 mm | - | - | - |
| 1778172281 | 22.22° C | 58% | 1016 hPa | 0 mm | - | - | - |
| 1778171680 | 21.67° C | 61% | 1016 hPa | 0 mm | - | - | - |
| 1778171079 | 21.11° C | 67% | 1016 hPa | 0 mm | - | - | - |
* Rain latest hour (hover to see other rain measurements)
** Current wind speed in m/s (hover to see current wind gust speed)